Jump to content

  •  

DELTA AIRLINES FLIGHT DL2725 FLOWN ON 01-04-2018 BY CAPTAIN DEREK ROGY

Pilot StatsCaptain Derek Rogy (LDP86) • 1,521.5 total hours • 815 total flights [View Logbook]
FLIGHT DETAILS
StatusReceived and approved on 2018-01-04 at 00:01:26
Origin AirportBradley Intl (KBDL) • Windsor Locks, Connecticut, United States (173 feet MSL)
Filed Flight PlanKBDL PONEE J68 HNK J49 BUFFY J95 CFB Q818 FNT J36 BAE J538 DLL J68 NICKL KMSP
Destination AirportMinneapolis-St Paul Intl (KMSP) • Minneapolis, Minnesota, United States (841 feet MSL)
Alternate AirportNone Filed
AirlineDelta Airlines
AircraftAirbus A320 (320 / A320)
FS Aircraft UsedFSLabs A320X CFM - Delta Air Lines (N312US)
Cruising AltitudeFL300
Distance Flown910 nautical miles
Passengers Onboard50 passengers (33.33% full)
DEPARTURE DETAILS
Time Out17:13:25
Taxi Data114,634 lbs total with 10,892 lbs of fuel onboard
Takeoff Data17:42:19 (29 minutes after leaving gate/ramp) • 157,268 lbs total • 9° pitch at 170 knots
Departure METARKBDL 040151Z 00000KT 10SM BKN140 BKN180 BKN250 M11/M15 A3015 RMK AO2 SLP213 T11061150
ARRIVAL DETAILS
Landing Data19:16:20 • 142,584 lbs total • 6° pitch doing 134 knots at a rate of -367.56 feet/minute with 10,653 lbs of fuel onboard
Time In19:19:29 (3 minutes after landing)
Ramp Weight142,473 lbs total
Total Fuel Used239 lbs
Total Block Time03:06:16 (3.1 hours) while 32 minutes were spent on the ground
Arrival METARKMSP 040453Z 36006KT 10SM CLR M19/M23 A3037 RMK AO2 SLP307 T11891228
MISCELLANEOUS DETAILS
LiveDISPATCH Version4.8.3.1
FS Version
FSUIPC Version5.12
OS VersionWindows 7 32-bit
Screen Resolution1920 x 1200
Pilot's CommentsNo Comments Reported
FLIGHT MAP